createdAt,value
2022-12-03T00:00:13.398Z,4.10
2022-12-03T00:02:41.040Z,4.00
2022-12-03T00:05:08.217Z,4.00
2022-12-03T00:07:35.107Z,4.10
2022-12-03T00:10:02.056Z,4.10
2022-12-03T00:12:29.430Z,4.10
2022-12-03T00:14:56.462Z,4.10
2022-12-03T00:17:23.401Z,4.10
2022-12-03T00:19:50.339Z,4.10
2022-12-03T00:22:17.192Z,4.10
2022-12-03T00:24:43.971Z,4.10
2022-12-03T00:27:10.800Z,4.10
2022-12-03T00:29:37.609Z,4.10
2022-12-03T00:32:04.454Z,4.10
2022-12-03T00:34:31.359Z,4.10
2022-12-03T00:36:58.138Z,4.10
2022-12-03T00:39:24.969Z,4.10
2022-12-03T00:41:51.787Z,4.10
2022-12-03T00:44:18.573Z,4.10
2022-12-03T00:46:45.463Z,4.10
2022-12-03T00:49:12.423Z,4.00
2022-12-03T00:51:39.204Z,4.10
2022-12-03T00:54:08.294Z,4.10
2022-12-03T00:56:35.068Z,4.10
2022-12-03T00:59:02.093Z,4.10
2022-12-03T01:01:29.001Z,4.00
2022-12-03T01:03:55.947Z,4.10
2022-12-03T01:06:22.754Z,4.10
2022-12-03T01:08:49.557Z,4.20
2022-12-03T01:11:34.903Z,4.10
2022-12-03T01:14:01.745Z,4.10
2022-12-03T01:16:28.651Z,4.00
2022-12-03T01:18:55.566Z,4.10
2022-12-03T01:21:22.394Z,4.00
2022-12-03T01:23:49.221Z,4.00
2022-12-03T01:26:16.065Z,4.00
2022-12-03T01:28:43.125Z,4.00
2022-12-03T01:31:29.080Z,4.00
2022-12-03T01:33:55.938Z,4.00
2022-12-03T01:36:22.884Z,4.00
2022-12-03T01:38:49.757Z,4.10
2022-12-03T01:41:17.389Z,4.00
2022-12-03T01:43:44.357Z,4.00
2022-12-03T01:46:13.898Z,4.00
2022-12-03T01:48:40.881Z,4.10
2022-12-03T01:51:08.132Z,4.10
2022-12-03T01:53:34.978Z,4.10
2022-12-03T01:56:01.924Z,4.00
2022-12-03T01:58:29.401Z,4.00
2022-12-03T02:00:58.062Z,4.00
2022-12-03T02:03:26.157Z,4.00
2022-12-03T02:05:53.185Z,4.00
2022-12-03T02:08:34.059Z,4.00
2022-12-03T02:11:21.098Z,4.00
2022-12-03T02:13:53.449Z,4.00
2022-12-03T02:16:20.501Z,4.00
2022-12-03T02:18:47.666Z,4.00
2022-12-03T02:21:23.486Z,4.00
2022-12-03T02:23:53.227Z,4.00
2022-12-03T02:26:20.035Z,4.00
2022-12-03T02:28:46.979Z,4.00
2022-12-03T02:31:14.006Z,4.00
2022-12-03T02:33:40.968Z,4.00
2022-12-03T02:36:08.039Z,4.00
2022-12-03T02:38:35.304Z,4.00
2022-12-03T02:41:08.560Z,4.10
2022-12-03T02:43:35.507Z,4.10
2022-12-03T02:46:04.091Z,4.10
2022-12-03T02:48:35.756Z,4.00
2022-12-03T02:51:07.198Z,4.10
2022-12-03T02:53:42.263Z,4.10
2022-12-03T02:56:09.684Z,4.10
2022-12-03T02:58:37.149Z,4.10
2022-12-03T03:01:04.883Z,4.00
2022-12-03T03:03:32.667Z,4.10
2022-12-03T03:06:00.660Z,4.10
2022-12-03T03:08:28.031Z,4.10
2022-12-03T03:10:56.163Z,4.10
2022-12-03T03:13:23.443Z,4.10
2022-12-03T03:15:50.368Z,4.10
2022-12-03T03:18:17.730Z,4.10
2022-12-03T03:20:45.172Z,4.20
2022-12-03T03:23:12.014Z,4.20
2022-12-03T03:25:39.926Z,4.10
2022-12-03T03:28:07.333Z,4.10
2022-12-03T03:30:35.546Z,4.10
2022-12-03T03:33:02.451Z,4.10
2022-12-03T03:35:29.293Z,4.10
2022-12-03T03:37:56.993Z,4.10
2022-12-03T03:40:24.435Z,4.10
2022-12-03T03:42:51.909Z,4.10
2022-12-03T03:45:21.631Z,4.10
2022-12-03T03:47:52.619Z,4.00
2022-12-03T03:50:19.610Z,4.10
2022-12-03T03:52:46.816Z,4.00
2022-12-03T03:55:13.960Z,4.00
2022-12-03T03:57:43.669Z,4.10
2022-12-03T04:00:11.021Z,4.10
2022-12-03T04:02:38.091Z,4.10
2022-12-03T04:05:05.208Z,4.20
2022-12-03T04:07:32.129Z,4.20
2022-12-03T04:09:59.012Z,4.10
2022-12-03T04:12:44.533Z,4.10
2022-12-03T04:15:11.332Z,4.10
2022-12-03T04:17:38.161Z,4.10
2022-12-03T04:20:05.313Z,4.10
2022-12-03T04:22:41.112Z,4.20
2022-12-03T04:25:27.820Z,4.20
2022-12-03T04:28:13.387Z,4.20
2022-12-03T04:30:40.315Z,4.20
2022-12-03T04:33:25.590Z,4.10
2022-12-03T04:35:52.492Z,4.20
2022-12-03T04:38:19.401Z,4.20
2022-12-03T04:41:01.252Z,4.10
2022-12-03T04:43:28.442Z,4.10
2022-12-03T04:45:55.344Z,4.10
2022-12-03T04:48:22.359Z,4.10
2022-12-03T04:50:49.289Z,4.10
2022-12-03T04:53:16.296Z,4.00
2022-12-03T04:55:43.124Z,4.10
2022-12-03T04:58:09.951Z,4.10
2022-12-03T05:00:36.878Z,4.10
2022-12-03T05:03:03.792Z,4.10
2022-12-03T05:05:30.710Z,4.00
2022-12-03T05:07:57.598Z,4.00
2022-12-03T05:10:24.493Z,4.00
2022-12-03T05:12:51.329Z,4.00
2022-12-03T05:15:18.228Z,4.00
2022-12-03T05:17:45.277Z,4.00
2022-12-03T05:20:30.882Z,4.10
2022-12-03T05:22:57.769Z,4.10
2022-12-03T05:25:24.625Z,4.10
2022-12-03T05:27:51.461Z,4.00
2022-12-03T05:30:18.329Z,4.00
2022-12-03T05:32:45.218Z,4.00
2022-12-03T05:35:12.142Z,4.00
2022-12-03T05:37:39.029Z,4.00
2022-12-03T05:40:06.432Z,4.00
2022-12-03T05:42:51.946Z,4.00
2022-12-03T05:45:19.424Z,4.10
2022-12-03T05:47:46.324Z,4.10
2022-12-03T05:50:13.269Z,4.10
2022-12-03T05:52:40.115Z,4.10
2022-12-03T05:55:07.573Z,4.10
2022-12-03T05:57:34.518Z,4.20
2022-12-03T06:00:01.447Z,4.10
2022-12-03T06:02:28.717Z,4.10
2022-12-03T06:04:55.997Z,4.10
2022-12-03T06:07:23.070Z,4.10
2022-12-03T06:09:49.867Z,4.10
2022-12-03T06:12:16.902Z,4.00
2022-12-03T06:14:43.764Z,4.00
2022-12-03T06:17:10.594Z,4.00
2022-12-03T06:19:37.444Z,4.00
2022-12-03T06:22:04.323Z,4.00
2022-12-03T06:24:31.264Z,4.00
2022-12-03T06:26:58.062Z,4.10
2022-12-03T06:29:24.884Z,4.20
2022-12-03T06:31:51.753Z,4.20
2022-12-03T06:34:18.568Z,4.10
2022-12-03T06:36:47.011Z,4.10
2022-12-03T06:39:13.795Z,4.10
2022-12-03T06:41:40.623Z,4.10
2022-12-03T06:44:07.494Z,4.10
2022-12-03T06:46:34.365Z,4.10
2022-12-03T06:49:01.354Z,4.10
2022-12-03T06:51:28.531Z,4.10
2022-12-03T06:53:55.358Z,4.20
2022-12-03T06:56:22.759Z,4.10
2022-12-03T06:58:49.648Z,4.10
2022-12-03T07:01:16.552Z,4.00
2022-12-03T07:03:43.460Z,4.00
2022-12-03T07:06:10.343Z,4.10
2022-12-03T07:08:37.339Z,4.00
2022-12-03T07:11:04.295Z,4.00
2022-12-03T07:13:31.212Z,4.10
2022-12-03T07:15:58.120Z,4.20
2022-12-03T07:18:25.030Z,4.20
2022-12-03T07:20:51.899Z,4.20
2022-12-03T07:23:18.697Z,4.20
2022-12-03T07:25:45.599Z,4.20
2022-12-03T07:28:12.380Z,4.20
2022-12-03T07:30:39.220Z,4.20
2022-12-03T07:33:06.073Z,4.20
2022-12-03T07:35:32.903Z,4.20
2022-12-03T07:37:59.762Z,4.20
2022-12-03T07:40:26.578Z,4.20
2022-12-03T07:42:53.428Z,4.20
2022-12-03T07:45:20.376Z,4.10
2022-12-03T07:47:47.333Z,4.20
2022-12-03T07:50:14.247Z,4.20
2022-12-03T07:52:41.123Z,4.20
2022-12-03T07:55:08.243Z,4.20
2022-12-03T07:57:35.140Z,4.20
2022-12-03T08:00:01.979Z,4.10
2022-12-03T08:02:28.926Z,4.10
2022-12-03T08:04:56.136Z,4.10
2022-12-03T08:07:23.147Z,4.10
2022-12-03T08:09:50.040Z,4.20
2022-12-03T08:12:18.219Z,4.30
2022-12-03T08:14:45.153Z,4.20
2022-12-03T08:17:12.938Z,4.20
2022-12-03T08:19:46.824Z,4.10
2022-12-03T08:22:14.968Z,4.20
2022-12-03T08:24:42.732Z,4.20
2022-12-03T08:27:17.753Z,4.30
2022-12-03T08:29:45.037Z,4.40
2022-12-03T08:32:12.377Z,4.30
2022-12-03T08:34:40.798Z,4.30
2022-12-03T08:37:16.627Z,4.30
2022-12-03T08:39:50.492Z,4.40
2022-12-03T08:42:41.826Z,4.40
2022-12-03T08:45:28.328Z,4.30
2022-12-03T08:47:55.771Z,4.30
2022-12-03T08:50:33.059Z,4.40
2022-12-03T08:53:09.320Z,4.40
2022-12-03T08:55:37.292Z,4.40
2022-12-03T08:58:23.527Z,4.40
2022-12-03T09:00:58.188Z,4.30
2022-12-03T09:03:25.167Z,4.30
2022-12-03T09:05:52.005Z,4.40
2022-12-03T09:08:18.952Z,4.30
2022-12-03T09:10:45.853Z,4.30
2022-12-03T09:13:12.691Z,4.30
2022-12-03T09:15:39.498Z,4.40
2022-12-03T09:18:06.368Z,4.30
2022-12-03T09:20:33.204Z,4.40
2022-12-03T09:23:00.107Z,4.40
2022-12-03T09:25:26.957Z,4.40
2022-12-03T09:27:53.829Z,4.50
2022-12-03T09:30:20.704Z,4.50
2022-12-03T09:32:47.525Z,4.50
2022-12-03T09:35:14.362Z,4.60
2022-12-03T09:37:41.213Z,4.60
2022-12-03T09:40:08.718Z,4.60
2022-12-03T09:42:35.822Z,4.70
2022-12-03T09:45:03.585Z,4.70
2022-12-03T09:47:30.917Z,4.80
2022-12-03T09:49:58.597Z,4.90
2022-12-03T09:52:29.205Z,4.80
2022-12-03T09:54:56.284Z,4.80
2022-12-03T09:57:23.285Z,4.80
2022-12-03T09:59:50.173Z,4.90
2022-12-03T10:02:26.969Z,4.90
2022-12-03T10:04:54.807Z,4.80
2022-12-03T10:07:22.346Z,4.70
2022-12-03T10:09:49.250Z,4.80
2022-12-03T10:12:21.084Z,4.80
2022-12-03T10:14:47.965Z,4.80
2022-12-03T10:17:15.264Z,4.80
2022-12-03T10:19:42.911Z,4.80
2022-12-03T10:22:09.778Z,4.80
2022-12-03T10:24:37.403Z,4.80
2022-12-03T10:27:08.757Z,4.70
2022-12-03T10:29:36.008Z,4.60
2022-12-03T10:32:04.280Z,4.60
2022-12-03T10:34:32.782Z,4.70
2022-12-03T10:37:08.763Z,4.60
2022-12-03T10:39:55.763Z,4.60
2022-12-03T10:42:23.939Z,4.60
2022-12-03T10:45:06.343Z,4.50
2022-12-03T10:47:33.396Z,4.40
2022-12-03T10:50:05.394Z,4.50
2022-12-03T10:52:32.931Z,4.40
2022-12-03T10:54:59.743Z,4.50
2022-12-03T10:57:26.662Z,4.60
2022-12-03T10:59:53.611Z,4.70
2022-12-03T11:02:22.089Z,4.70
2022-12-03T11:04:49.361Z,4.70
2022-12-03T11:07:17.535Z,4.70
2022-12-03T11:09:45.479Z,4.60
2022-12-03T11:12:34.838Z,4.70
2022-12-03T11:15:06.574Z,4.60
2022-12-03T11:17:53.105Z,4.60
2022-12-03T11:20:22.978Z,4.60
2022-12-03T11:22:52.942Z,4.60
2022-12-03T11:25:25.651Z,4.60
2022-12-03T11:28:10.575Z,4.60
2022-12-03T11:30:50.058Z,4.50
2022-12-03T11:33:24.230Z,4.50
2022-12-03T11:36:03.106Z,4.60
2022-12-03T11:38:47.367Z,4.60
2022-12-03T11:41:17.719Z,4.50
2022-12-03T11:43:53.712Z,4.50
2022-12-03T11:46:22.010Z,4.60
2022-12-03T11:48:50.284Z,4.50
2022-12-03T11:51:18.502Z,4.50
2022-12-03T11:53:45.480Z,4.60
2022-12-03T11:56:19.612Z,4.70
2022-12-03T11:58:47.455Z,4.70
2022-12-03T12:01:15.602Z,4.70
2022-12-03T12:03:44.226Z,4.60
2022-12-03T12:06:12.193Z,4.60
2022-12-03T12:08:40.117Z,4.60
2022-12-03T12:11:17.108Z,4.60
2022-12-03T12:13:43.898Z,4.70
2022-12-03T12:16:11.132Z,4.70
2022-12-03T12:18:40.850Z,4.70
2022-12-03T12:21:26.357Z,4.70
2022-12-03T12:23:53.374Z,4.70
2022-12-03T12:26:20.169Z,4.70
2022-12-03T12:28:47.080Z,4.80
2022-12-03T12:31:14.115Z,4.80
2022-12-03T12:33:41.045Z,4.90
2022-12-03T12:36:10.985Z,4.90
2022-12-03T12:38:37.797Z,4.90
2022-12-03T12:41:07.263Z,5.00
2022-12-03T12:43:36.148Z,5.00
2022-12-03T12:46:45.596Z,5.10
2022-12-03T12:48:59.808Z,5.10
2022-12-03T12:51:27.345Z,5.10
2022-12-03T12:53:54.251Z,5.00
2022-12-03T12:56:21.121Z,5.00
2022-12-03T12:58:48.151Z,4.90
2022-12-03T13:01:36.459Z,5.00
2022-12-03T13:04:10.481Z,4.90
2022-12-03T13:06:37.422Z,5.00
2022-12-03T13:09:04.367Z,5.10
2022-12-03T13:11:32.283Z,5.20
2022-12-03T13:14:00.860Z,5.00
2022-12-03T13:16:32.103Z,5.00
2022-12-03T13:18:59.889Z,5.00
2022-12-03T13:21:44.121Z,5.00
2022-12-03T13:24:29.661Z,4.90
2022-12-03T13:26:57.217Z,4.90
2022-12-03T13:29:24.338Z,4.80
2022-12-03T13:32:01.852Z,4.90
2022-12-03T13:34:31.912Z,4.90
2022-12-03T13:36:59.673Z,4.90
2022-12-03T13:39:37.134Z,5.00
2022-12-03T13:42:39.254Z,4.90
2022-12-03T13:45:26.717Z,4.80
2022-12-03T13:47:55.306Z,4.70
2022-12-03T13:50:36.212Z,4.70
2022-12-03T13:53:22.386Z,4.70
2022-12-03T13:55:50.860Z,4.60
2022-12-03T13:58:17.795Z,4.60
2022-12-03T14:00:44.879Z,4.50
2022-12-03T14:03:11.926Z,4.40
2022-12-03T14:05:38.985Z,4.40
2022-12-03T14:08:06.393Z,4.40
2022-12-03T14:10:33.754Z,4.30
2022-12-03T14:13:00.623Z,4.40
2022-12-03T14:15:27.494Z,4.30
2022-12-03T14:17:54.410Z,4.30
2022-12-03T14:20:21.318Z,4.30
2022-12-03T14:22:48.225Z,4.20
2022-12-03T14:25:15.173Z,4.30
2022-12-03T14:27:41.983Z,4.30
2022-12-03T14:30:09.414Z,4.30
2022-12-03T14:32:36.274Z,4.20
2022-12-03T14:35:08.303Z,4.20
2022-12-03T14:37:36.741Z,4.30
2022-12-03T14:40:04.306Z,4.30
2022-12-03T14:42:31.194Z,4.30
2022-12-03T14:44:58.161Z,4.30
2022-12-03T14:47:25.088Z,4.30
2022-12-03T14:49:52.865Z,4.30
2022-12-03T14:52:20.207Z,4.30
2022-12-03T14:54:47.042Z,4.30
2022-12-03T14:57:14.499Z,4.30
2022-12-03T14:59:42.391Z,4.30
2022-12-03T15:04:47.463Z,4.30
2022-12-03T15:07:14.384Z,4.20
2022-12-03T15:09:41.208Z,4.20
2022-12-03T15:12:08.388Z,4.30
2022-12-03T15:14:35.317Z,4.20
2022-12-03T15:17:02.356Z,4.20
2022-12-03T15:19:29.285Z,4.20
2022-12-03T15:21:56.183Z,4.20
2022-12-03T15:24:23.171Z,4.20
2022-12-03T15:26:52.311Z,4.20
2022-12-03T15:29:19.667Z,4.20
2022-12-03T15:31:46.623Z,4.10
2022-12-03T15:34:17.432Z,4.10
2022-12-03T15:36:48.863Z,4.10
2022-12-03T15:39:15.841Z,4.10
2022-12-03T15:44:35.729Z,3.90
2022-12-03T15:45:00.449Z,4.00
2022-12-03T15:47:02.589Z,3.90
2022-12-03T15:49:29.417Z,3.90
2022-12-03T15:51:56.326Z,4.00
2022-12-03T15:54:23.211Z,3.90
2022-12-03T15:56:54.115Z,3.90
2022-12-03T15:59:24.061Z,3.80
2022-12-03T16:01:51.776Z,3.80
2022-12-03T16:04:18.632Z,3.80
2022-12-03T16:06:45.484Z,3.80
2022-12-03T16:09:12.310Z,3.80
2022-12-03T16:11:39.392Z,3.80
2022-12-03T16:14:06.338Z,3.80
2022-12-03T16:16:33.225Z,3.80
2022-12-03T16:19:00.134Z,3.80
2022-12-03T16:21:27.548Z,3.80
2022-12-03T16:23:56.811Z,3.80
2022-12-03T16:26:23.644Z,3.80
2022-12-03T16:28:50.540Z,3.80
2022-12-03T16:31:19.218Z,3.80
2022-12-03T16:33:46.230Z,3.80
2022-12-03T16:36:13.127Z,3.80
2022-12-03T16:38:46.155Z,3.90
2022-12-03T16:41:13.029Z,3.90
2022-12-03T16:43:39.984Z,3.80
2022-12-03T16:46:15.612Z,3.80
2022-12-03T16:48:42.740Z,3.80
2022-12-03T16:51:10.131Z,3.90
2022-12-03T16:53:37.010Z,3.80
2022-12-03T16:56:04.022Z,3.90
2022-12-03T16:58:30.890Z,3.90
2022-12-03T17:00:57.850Z,3.90
2022-12-03T17:03:28.994Z,3.90
2022-12-03T17:05:59.173Z,4.00
2022-12-03T17:08:25.976Z,4.00
2022-12-03T17:10:52.924Z,4.00
2022-12-03T17:13:19.949Z,3.90
2022-12-03T17:15:46.879Z,3.90
2022-12-03T17:18:13.801Z,3.90
2022-12-03T17:20:50.172Z,3.90
2022-12-03T17:23:17.986Z,3.80
2022-12-03T17:25:56.859Z,3.80
2022-12-03T17:28:48.306Z,3.80
2022-12-03T17:31:21.372Z,3.90
2022-12-03T17:33:48.317Z,3.70
2022-12-03T17:36:15.150Z,3.70
2022-12-03T17:38:42.039Z,3.70
2022-12-03T17:41:08.925Z,3.70
2022-12-03T17:43:35.881Z,3.80
2022-12-03T17:46:02.847Z,3.80
2022-12-03T17:48:31.398Z,3.90
2022-12-03T17:50:58.394Z,3.90
2022-12-03T17:53:25.518Z,4.00
2022-12-03T17:55:52.483Z,4.00
2022-12-03T17:58:19.417Z,4.00
2022-12-03T18:00:46.274Z,3.90
2022-12-03T18:03:13.073Z,3.90
2022-12-03T18:05:40.000Z,3.90
2022-12-03T18:08:06.896Z,4.00
2022-12-03T18:10:33.793Z,4.00
2022-12-03T18:13:02.504Z,4.00
2022-12-03T18:15:29.832Z,4.00
2022-12-03T18:17:56.646Z,4.10
2022-12-03T18:20:23.448Z,4.10
2022-12-03T18:22:50.319Z,4.20
2022-12-03T18:25:18.193Z,4.10
2022-12-03T18:27:45.994Z,4.00
2022-12-03T18:30:12.985Z,3.90
2022-12-03T18:32:39.805Z,3.90
2022-12-03T18:35:06.785Z,3.90
2022-12-03T18:37:33.863Z,3.90
2022-12-03T18:40:01.136Z,3.80
2022-12-03T18:42:28.261Z,4.00
2022-12-03T18:44:55.933Z,4.00
2022-12-03T18:47:27.579Z,4.10
2022-12-03T18:49:55.308Z,4.20
2022-12-03T18:52:22.858Z,4.30
2022-12-03T18:54:49.706Z,4.40
2022-12-03T18:57:16.687Z,4.20
2022-12-03T18:59:43.677Z,4.10
2022-12-03T19:02:26.684Z,4.00
2022-12-03T19:05:01.492Z,3.90
2022-12-03T19:07:28.268Z,3.90
2022-12-03T19:09:55.611Z,4.00
2022-12-03T19:12:22.727Z,4.10
2022-12-03T19:14:50.394Z,4.00
2022-12-03T19:17:17.263Z,4.00
2022-12-03T19:19:44.094Z,3.90
2022-12-03T19:22:11.010Z,3.90
2022-12-03T19:24:40.856Z,4.00
2022-12-03T19:27:07.693Z,4.00
2022-12-03T19:29:34.710Z,3.90
2022-12-03T19:32:01.644Z,3.90
2022-12-03T19:34:28.597Z,3.90
2022-12-03T19:36:55.449Z,3.90
2022-12-03T19:39:22.317Z,4.00
2022-12-03T19:41:49.130Z,3.90
2022-12-03T19:44:17.096Z,3.90
2022-12-03T19:46:44.476Z,3.90
2022-12-03T19:49:11.629Z,3.90
2022-12-03T19:51:38.442Z,3.90
2022-12-03T19:54:06.154Z,3.90
2022-12-03T19:56:33.201Z,3.80
2022-12-03T19:59:00.114Z,3.80
2022-12-03T20:01:29.177Z,3.80
2022-12-03T20:03:57.594Z,3.80
2022-12-03T20:06:26.197Z,3.80
2022-12-03T20:08:57.296Z,3.80
2022-12-03T20:11:25.316Z,3.80
2022-12-03T20:13:53.133Z,3.70
2022-12-03T20:16:20.101Z,3.70
2022-12-03T20:18:47.626Z,3.70
2022-12-03T20:21:15.724Z,3.90
2022-12-03T20:23:42.589Z,3.90
2022-12-03T20:26:10.226Z,3.80
2022-12-03T20:28:37.215Z,3.80
2022-12-03T20:31:09.719Z,3.80
2022-12-03T20:33:37.004Z,3.70
2022-12-03T20:36:04.195Z,3.70
2022-12-03T20:38:32.113Z,3.70
2022-12-03T20:41:02.384Z,3.70
2022-12-03T20:43:29.564Z,3.70
2022-12-03T20:46:02.424Z,3.70
2022-12-03T20:48:29.802Z,3.70
2022-12-03T20:50:56.667Z,3.70
2022-12-03T20:53:25.233Z,3.60
2022-12-03T20:55:58.881Z,3.60
2022-12-03T20:58:26.027Z,3.70
2022-12-03T21:00:52.990Z,3.60
2022-12-03T21:03:19.916Z,3.50
2022-12-03T21:05:47.752Z,3.50
2022-12-03T21:08:14.735Z,3.60
2022-12-03T21:10:45.213Z,3.50
2022-12-03T21:13:13.299Z,3.60
2022-12-03T21:15:40.332Z,3.50
2022-12-03T21:18:08.043Z,3.60
2022-12-03T21:20:39.240Z,3.60
2022-12-03T21:23:06.187Z,3.70
2022-12-03T21:25:33.973Z,3.80
2022-12-03T21:28:00.799Z,3.80
2022-12-03T21:30:27.863Z,3.70
2022-12-03T21:32:54.823Z,3.70
2022-12-03T21:35:21.819Z,3.80
2022-12-03T21:37:49.358Z,3.60
2022-12-03T21:40:16.309Z,3.50
2022-12-03T21:42:43.171Z,3.60
2022-12-03T21:45:10.143Z,3.60
2022-12-03T21:47:37.759Z,3.50
2022-12-03T21:50:06.663Z,3.60
2022-12-03T21:52:34.151Z,3.60
2022-12-03T21:55:01.155Z,3.70
2022-12-03T21:57:28.031Z,3.80
2022-12-03T21:59:57.780Z,3.70
2022-12-03T22:02:24.880Z,3.70
2022-12-03T22:04:51.744Z,3.70
2022-12-03T22:07:18.624Z,3.60
2022-12-03T22:09:45.498Z,3.60
2022-12-03T22:12:12.306Z,3.50
2022-12-03T22:14:40.008Z,3.50
2022-12-03T22:17:06.910Z,3.50
2022-12-03T22:19:33.710Z,3.40
2022-12-03T22:22:00.566Z,3.60
2022-12-03T22:24:27.422Z,3.60
2022-12-03T22:26:54.977Z,3.70
2022-12-03T22:29:22.123Z,3.60
2022-12-03T22:31:48.952Z,3.50
2022-12-03T22:34:15.812Z,3.50
2022-12-03T22:36:42.822Z,3.50
2022-12-03T22:39:09.650Z,3.50
2022-12-03T22:41:36.455Z,3.40
2022-12-03T22:44:03.328Z,3.30
2022-12-03T22:46:30.349Z,3.30
2022-12-03T22:49:00.627Z,3.30
2022-12-03T22:51:32.169Z,3.30
2022-12-03T22:53:59.857Z,3.20
2022-12-03T22:56:27.533Z,3.30
2022-12-03T22:58:54.547Z,3.20
2022-12-03T23:01:28.957Z,3.10
2022-12-03T23:03:56.007Z,3.10
2022-12-03T23:06:23.234Z,3.20
2022-12-03T23:08:50.516Z,3.10
2022-12-03T23:11:17.671Z,3.10
2022-12-03T23:13:44.888Z,3.10
2022-12-03T23:16:20.053Z,3.10
2022-12-03T23:18:46.993Z,3.20
2022-12-03T23:21:17.955Z,3.20
2022-12-03T23:23:44.970Z,3.20
2022-12-03T23:26:12.813Z,3.20
2022-12-03T23:28:41.214Z,3.20
2022-12-03T23:31:15.522Z,3.20
2022-12-03T23:33:42.349Z,3.30
2022-12-03T23:36:09.470Z,3.20
2022-12-03T23:38:36.418Z,3.10
2022-12-03T23:41:13.872Z,3.10
2022-12-03T23:43:41.160Z,3.00
2022-12-03T23:46:09.387Z,3.00
2022-12-03T23:48:36.314Z,3.00
2022-12-03T23:51:08.074Z,3.00
2022-12-03T23:53:35.628Z,3.00
2022-12-03T23:56:09.149Z,2.90
2022-12-03T23:58:35.971Z,2.80
